createdAt,value
2022-12-15T00:01:48.411Z,0.75
2022-12-15T00:07:10.194Z,0.90
2022-12-15T00:12:31.611Z,1.15
2022-12-15T00:17:54.435Z,0.61
2022-12-15T00:23:18.730Z,0.50
2022-12-15T00:28:40.508Z,0.49
2022-12-15T00:34:03.708Z,0.77
2022-12-15T00:39:07.655Z,0.34
2022-12-15T00:44:15.746Z,0.60
2022-12-15T00:49:41.074Z,0.69
2022-12-15T00:55:02.681Z,0.62
2022-12-15T01:00:24.893Z,0.81
2022-12-15T01:05:49.427Z,0.50
2022-12-15T01:11:11.096Z,0.68
2022-12-15T01:16:33.781Z,0.48
2022-12-15T01:21:39.287Z,-0.08
2022-12-15T01:26:43.288Z,0.18
2022-12-15T01:31:49.671Z,0.49
2022-12-15T01:36:55.559Z,0.50
2022-12-15T01:41:59.871Z,0.47
2022-12-15T01:47:05.583Z,0.28
2022-12-15T01:52:11.899Z,0.42
2022-12-15T01:57:20.387Z,0.19
2022-12-15T02:02:28.145Z,0.05
2022-12-15T02:07:34.867Z,-0.01
2022-12-15T02:12:46.676Z,0.16
2022-12-15T02:17:58.678Z,0.18
2022-12-15T02:23:30.680Z,0.17
2022-12-15T02:28:50.255Z,0.08
2022-12-15T02:34:01.869Z,0.15
2022-12-15T02:39:06.654Z,-0.19
2022-12-15T02:44:14.169Z,0.01
2022-12-15T02:49:28.520Z,0.22
2022-12-15T02:54:45.101Z,0.23
2022-12-15T02:59:55.998Z,-0.22
2022-12-15T03:05:02.368Z,0.00
2022-12-15T03:10:09.767Z,-0.23
2022-12-15T03:15:14.114Z,-0.04
2022-12-15T03:20:19.639Z,-0.02
2022-12-15T03:25:23.767Z,0.05
2022-12-15T03:30:28.110Z,0.21
2022-12-15T03:35:34.520Z,0.23
2022-12-15T03:40:38.679Z,-0.30
2022-12-15T03:45:42.736Z,0.12
2022-12-15T03:50:49.647Z,0.27
2022-12-15T03:55:53.716Z,0.37
2022-12-15T04:00:58.046Z,0.18
2022-12-15T04:06:03.581Z,0.42
2022-12-15T04:11:07.675Z,0.10
2022-12-15T04:16:17.835Z,0.50
2022-12-15T04:21:25.182Z,0.44
2022-12-15T04:26:46.359Z,0.42
2022-12-15T04:32:07.656Z,0.50
2022-12-15T04:37:33.100Z,0.47
2022-12-15T04:42:56.304Z,0.35
2022-12-15T04:48:18.566Z,0.31
2022-12-15T04:53:41.412Z,0.45
2022-12-15T04:59:02.970Z,0.25
2022-12-15T05:04:24.816Z,0.29
2022-12-15T05:09:47.500Z,0.10
2022-12-15T05:15:08.741Z,0.38
2022-12-15T05:20:30.238Z,0.44
2022-12-15T05:25:53.054Z,0.45
2022-12-15T05:31:16.109Z,0.33
2022-12-15T05:36:20.093Z,0.16
2022-12-15T05:41:27.735Z,0.23
2022-12-15T05:46:31.966Z,0.27
2022-12-15T05:51:40.512Z,0.15
2022-12-15T05:56:46.759Z,0.28
2022-12-15T06:01:54.393Z,0.43
2022-12-15T06:06:58.387Z,0.42
2022-12-15T06:12:04.013Z,0.48
2022-12-15T06:17:08.085Z,0.67
2022-12-15T06:22:12.620Z,1.10
2022-12-15T06:27:18.044Z,0.86
2022-12-15T06:32:22.459Z,0.61
2022-12-15T06:37:26.443Z,0.67
2022-12-15T06:42:31.838Z,0.80
2022-12-15T06:47:35.926Z,0.83
2022-12-15T06:52:39.868Z,1.02
2022-12-15T06:57:45.275Z,0.86
2022-12-15T07:02:50.335Z,0.75
2022-12-15T07:07:54.580Z,0.72
2022-12-15T07:12:59.893Z,1.09
2022-12-15T07:18:04.087Z,1.38
2022-12-15T07:23:09.701Z,2.06
2022-12-15T07:28:15.101Z,2.46
2022-12-15T07:33:19.415Z,3.52
2022-12-15T07:38:23.414Z,3.29
2022-12-15T07:43:30.963Z,3.72
2022-12-15T07:48:36.134Z,3.94
2022-12-15T07:53:40.414Z,4.26
2022-12-15T07:58:45.691Z,4.09
2022-12-15T08:03:50.164Z,4.48
2022-12-15T08:08:55.040Z,4.79
2022-12-15T08:14:02.934Z,5.46
2022-12-15T08:19:09.042Z,4.89
2022-12-15T08:24:14.944Z,4.63
2022-12-15T08:34:44.971Z,4.54
2022-12-15T08:39:49.322Z,4.80
2022-12-15T08:44:55.192Z,5.24
2022-12-15T08:49:59.365Z,6.49
2022-12-15T08:55:03.414Z,7.14
2022-12-15T09:00:10.787Z,6.63
2022-12-15T09:05:14.997Z,7.65
2022-12-15T09:10:18.969Z,7.39
2022-12-15T09:15:45.360Z,8.58
2022-12-15T09:20:48.353Z,9.68
2022-12-15T09:25:52.530Z,8.88
2022-12-15T09:31:03.704Z,8.64
2022-12-15T09:36:08.645Z,8.51
2022-12-15T09:41:22.924Z,8.75
2022-12-15T09:46:50.335Z,10.18
2022-12-15T09:52:05.907Z,10.03
2022-12-15T09:57:24.883Z,10.51
2022-12-15T10:02:56.997Z,9.62
2022-12-15T10:08:02.013Z,10.45
2022-12-15T10:13:12.256Z,9.94
2022-12-15T10:18:22.508Z,10.20
2022-12-15T10:23:26.834Z,10.24
2022-12-15T10:29:03.824Z,10.41
2022-12-15T10:34:14.751Z,11.39
2022-12-15T10:39:18.872Z,10.54
2022-12-15T10:44:32.048Z,10.61
2022-12-15T10:49:36.332Z,10.22
2022-12-15T10:54:47.184Z,10.19
2022-12-15T10:59:53.905Z,9.08
2022-12-15T11:05:00.310Z,8.75
2022-12-15T11:10:17.207Z,8.51
2022-12-15T11:15:43.077Z,7.98
2022-12-15T11:20:52.479Z,8.19
2022-12-15T11:26:03.279Z,8.29
2022-12-15T11:31:19.592Z,8.98
2022-12-15T11:36:46.712Z,9.68
2022-12-15T11:41:58.949Z,9.53
2022-12-15T11:47:13.517Z,8.54
2022-12-15T11:52:34.866Z,9.05
2022-12-15T11:58:00.411Z,8.35
2022-12-15T12:03:21.260Z,8.31
2022-12-15T12:08:37.528Z,7.75
2022-12-15T12:13:54.772Z,8.07
2022-12-15T12:19:04.402Z,9.71
2022-12-15T12:24:17.880Z,10.81
2022-12-15T12:29:26.911Z,11.47
2022-12-15T12:34:40.044Z,9.92
2022-12-15T12:39:45.877Z,9.70
2022-12-15T12:44:51.348Z,8.87
2022-12-15T12:50:02.045Z,8.84
2022-12-15T12:55:27.191Z,8.74
2022-12-15T13:00:33.055Z,9.04
2022-12-15T13:05:40.344Z,9.11
2022-12-15T13:10:45.784Z,9.31
2022-12-15T13:16:01.892Z,9.02
2022-12-15T13:21:36.346Z,9.09
2022-12-15T13:26:48.648Z,9.13
2022-12-15T13:31:55.152Z,9.63
2022-12-15T13:37:02.607Z,9.89
2022-12-15T13:47:56.427Z,9.79
2022-12-15T13:53:20.495Z,9.69
2022-12-15T13:58:26.087Z,9.32
2022-12-15T14:03:30.844Z,9.21
2022-12-15T14:08:36.688Z,9.01
2022-12-15T14:13:41.014Z,8.29
2022-12-15T14:18:45.571Z,7.92
2022-12-15T14:24:28.799Z,7.32
2022-12-15T14:29:14.954Z,6.93
2022-12-15T14:34:25.856Z,6.40
2022-12-15T14:39:37.699Z,6.14
2022-12-15T14:44:49.729Z,6.01
2022-12-15T14:49:56.677Z,6.04
2022-12-15T14:55:03.509Z,6.08
2022-12-15T15:00:26.559Z,5.90
2022-12-15T15:03:07.531Z,9.72
2022-12-15T15:05:30.917Z,5.81
2022-12-15T15:10:36.643Z,5.95
2022-12-15T15:15:40.740Z,6.05
2022-12-15T15:20:56.854Z,6.30
2022-12-15T15:26:11.067Z,6.32
2022-12-15T15:31:36.685Z,6.31
2022-12-15T15:36:44.303Z,6.29
2022-12-15T15:42:16.181Z,6.24
2022-12-15T15:47:24.957Z,6.36
2022-12-15T15:52:33.634Z,6.38
2022-12-15T15:57:38.980Z,6.38
2022-12-15T16:02:43.839Z,6.28
2022-12-15T16:07:48.628Z,6.26
2022-12-15T16:12:56.902Z,6.15
2022-12-15T16:18:01.228Z,6.13
2022-12-15T16:23:09.523Z,6.18
2022-12-15T16:28:17.936Z,5.90
2022-12-15T16:33:22.441Z,5.94
2022-12-15T16:38:29.742Z,5.79
2022-12-15T16:43:39.125Z,5.79
2022-12-15T16:48:45.693Z,5.36
2022-12-15T16:53:49.842Z,5.19
2022-12-15T16:59:15.674Z,4.91
2022-12-15T17:04:21.659Z,4.85
2022-12-15T17:09:27.334Z,4.83
2022-12-15T17:14:32.935Z,5.10
2022-12-15T17:19:37.166Z,5.54
2022-12-15T17:24:42.468Z,5.76
2022-12-15T17:29:48.199Z,5.89
2022-12-15T17:34:52.886Z,6.13
2022-12-15T17:39:56.895Z,6.31
2022-12-15T17:45:02.389Z,6.44
2022-12-15T17:50:06.987Z,6.14
2022-12-15T17:55:23.256Z,5.85
2022-12-15T18:00:30.922Z,5.62
2022-12-15T18:05:35.359Z,5.52
2022-12-15T18:10:41.174Z,5.42
2022-12-15T18:15:46.971Z,5.42
2022-12-15T18:20:52.162Z,5.21
2022-12-15T18:26:03.084Z,4.99
2022-12-15T18:31:22.152Z,4.96
2022-12-15T18:36:26.296Z,4.90
2022-12-15T18:41:30.432Z,4.93
2022-12-15T18:46:36.011Z,4.80
2022-12-15T18:51:40.221Z,5.20
2022-12-15T18:56:44.648Z,5.63
2022-12-15T19:01:50.520Z,5.96
2022-12-15T19:06:54.963Z,6.12
2022-12-15T19:12:12.793Z,6.15
2022-12-15T19:17:37.221Z,6.31
2022-12-15T19:22:41.413Z,6.29
2022-12-15T19:27:45.487Z,6.42
2022-12-15T19:32:52.234Z,6.02
2022-12-15T19:38:02.437Z,5.92
2022-12-15T19:43:06.717Z,5.78
2022-12-15T19:48:13.395Z,5.56
2022-12-15T19:53:24.355Z,5.30
2022-12-15T19:58:30.910Z,4.92
2022-12-15T20:03:36.717Z,5.20
2022-12-15T20:08:43.447Z,4.86
2022-12-15T20:13:48.456Z,5.20
2022-12-15T20:18:56.070Z,5.47
2022-12-15T20:24:05.344Z,5.14
2022-12-15T20:29:24.660Z,5.10
2022-12-15T20:34:30.251Z,5.10
2022-12-15T20:39:35.612Z,5.27
2022-12-15T20:44:39.668Z,5.32
2022-12-15T20:49:45.087Z,5.06
2022-12-15T20:54:49.045Z,5.16
2022-12-15T20:59:52.969Z,5.19
2022-12-15T21:04:58.501Z,5.04
2022-12-15T21:10:02.492Z,5.04
2022-12-15T21:15:15.423Z,4.84
2022-12-15T21:20:21.038Z,4.92
2022-12-15T21:25:27.601Z,4.72
2022-12-15T21:30:31.729Z,4.71
2022-12-15T21:35:38.622Z,4.59
2022-12-15T21:40:42.926Z,4.60
2022-12-15T21:45:47.769Z,4.36
2022-12-15T21:50:53.161Z,4.32
2022-12-15T21:55:57.867Z,4.41
2022-12-15T22:01:02.196Z,4.29
2022-12-15T22:06:07.922Z,4.59
2022-12-15T22:11:20.128Z,4.38
2022-12-15T22:16:24.438Z,4.25
2022-12-15T22:21:29.957Z,4.77
2022-12-15T22:26:34.017Z,4.40
2022-12-15T22:31:38.109Z,4.89
2022-12-15T22:36:43.741Z,4.59
2022-12-15T22:41:50.478Z,4.57
2022-12-15T22:46:56.744Z,4.70
2022-12-15T22:52:02.264Z,4.69
2022-12-15T22:57:13.004Z,4.55
2022-12-15T23:02:17.042Z,4.51
2022-12-15T23:07:22.475Z,4.13
2022-12-15T23:12:26.436Z,4.31
2022-12-15T23:17:30.510Z,3.97
2022-12-15T23:22:36.006Z,3.97
2022-12-15T23:27:40.299Z,4.00
2022-12-15T23:32:44.523Z,4.03
2022-12-15T23:37:49.907Z,3.64
2022-12-15T23:42:54.483Z,3.77
2022-12-15T23:47:59.267Z,3.71
2022-12-15T23:53:05.390Z,3.93
2022-12-15T23:58:10.120Z,3.89
